Time;durP1;ratioP1;P1;durP2;ratioP2;P2;SDS_P1;SDS_P2;PMS_P1;PMS_P2;Temp;Humidity;BMP_temperature;BMP_pressure;BME280_temperature;BME280_humidity;BME280_pressure;Samples;Min_cycle;Max_cycle;Signal;HPM_P1;HPM_P2
2024/01/10 00:02:54;;;;;;;;;;;;;;;-4.75;60.77;101603.50;6322364;28;19977;-69
2024/01/10 00:05:55;;;;;;;;;;;;;;;-4.89;62.34;101606.53;6325870;28;20285;-69
2024/01/10 00:08:55;;;;;;;;;;;;;;;-4.83;61.96;101600.75;6339873;27;20378;-68
2024/01/10 00:11:56;;;;;;;;;;;;;;;-4.81;62.76;101603.34;6335311;28;19931;-69
2024/01/10 00:14:57;;;;;;;;;;;;;;;-4.87;62.57;101604.03;6334638;28;20274;-69
2024/01/10 00:18:00;;;;;;;;;;;;;;;-4.92;63.22;101608.13;6336480;28;19924;-69
2024/01/10 00:21:01;;;;;;;;;;;;;;;-4.91;62.41;101609.84;6346180;28;20042;-69
2024/01/10 00:24:02;;;;;;;;;;;;;;;-4.99;63.17;101606.25;6347792;28;19924;-69
2024/01/10 00:27:03;;;;;;;;;;;;;;;-5.02;63.53;101609.56;6343025;28;19923;-69
2024/01/10 00:30:04;;;;;;;;;;;;;;;-5.05;63.07;101609.47;6347497;28;19924;-69
2024/01/10 00:33:08;;;;;;;;;;;;;;;-5.04;62.12;101612.88;6347593;28;20400;-69
2024/01/10 00:36:09;;;;;;;;;;;;;;;-5.10;63.20;101603.41;6347601;28;19923;-69
2024/01/10 00:39:10;;;;;;;;;;;;;;;-5.07;64.02;101614.50;6346105;28;20018;-69
2024/01/10 00:42:11;;;;;;;;;;;;;;;-5.13;64.41;101616.03;6347378;28;20389;-69
2024/01/10 00:45:12;;;;;;;;;;;;;;;-5.14;64.28;101622.81;6351359;28;20441;-69
2024/01/10 00:48:12;;;;;;;;;;;;;;;-5.15;63.95;101627.84;6352362;28;19924;-69
2024/01/10 00:51:13;;;;;;;;;;;;;;;-5.22;64.60;101623.41;6352413;28;19931;-69
2024/01/10 00:54:14;;;;;;;;;;;;;;;-5.24;64.03;101622.50;6352478;28;19963;-69
2024/01/10 00:57:16;;;;;;;;;;;;;;;-5.21;64.35;101625.97;6352345;28;19931;-69
2024/01/10 01:00:17;;;;;;;;;;;;;;;-5.26;65.24;101618.22;6351068;28;20441;-69
2024/01/10 01:03:19;;;;;;;;;;;;;;;-5.27;65.15;101620.75;6338491;28;19931;-69
2024/01/10 01:06:20;;;;;;;;;;;;;;;-5.30;64.73;101615.56;6326471;28;20393;-70
2024/01/10 01:09:21;;;;;;;;;;;;;;;-5.29;64.90;101612.22;6324801;28;19975;-69
2024/01/10 01:12:22;;;;;;;;;;;;;;;-5.34;65.22;101613.75;6324996;28;20514;-70
2024/01/10 01:15:23;;;;;;;;;;;;;;;-5.31;64.66;101616.38;6328772;28;19924;-70
2024/01/10 01:18:24;;;;;;;;;;;;;;;-5.35;64.84;101614.56;6350564;28;19928;-70
2024/01/10 01:21:26;;;;;;;;;;;;;;;-5.34;65.11;101613.75;6351553;28;19992;-69
2024/01/10 01:24:27;;;;;;;;;;;;;;;-5.38;64.43;101604.28;6350402;28;19939;-69
2024/01/10 01:27:28;;;;;;;;;;;;;;;-5.40;65.30;101608.47;6351990;28;19949;-70
2024/01/10 01:30:28;;;;;;;;;;;;;;;-5.47;65.53;101600.66;6350249;28;19967;-70
2024/01/10 01:33:29;;;;;;;;;;;;;;;-5.53;65.10;101610.66;6342845;28;19958;-70
2024/01/10 01:36:30;;;;;;;;;;;;;;;-5.53;65.33;101600.47;6350269;28;20370;-70
2024/01/10 01:39:31;;;;;;;;;;;;;;;-5.61;65.84;101607.03;6351080;28;19934;-70
2024/01/10 01:42:32;;;;;;;;;;;;;;;-5.76;65.45;101604.03;6350128;28;20419;-71
2024/01/10 01:45:33;;;;;;;;;;;;;;;-5.70;65.28;101602.53;6349946;28;19924;-70
2024/01/10 01:48:35;;;;;;;;;;;;;;;-5.63;67.02;101598.47;6351370;28;20007;-70
2024/01/10 01:51:37;;;;;;;;;;;;;;;-5.64;66.99;101598.44;6349791;28;19983;-70
2024/01/10 01:54:39;;;;;;;;;;;;;;;-5.70;69.31;101597.44;6350742;28;19924;-70
2024/01/10 01:57:40;;;;;;;;;;;;;;;-5.70;68.76;101594.06;6350931;28;19928;-70
2024/01/10 02:00:41;;;;;;;;;;;;;;;-5.67;68.64;101589.03;6349764;28;19970;-70
2024/01/10 02:03:43;;;;;;;;;;;;;;;-5.75;68.61;101586.25;6350882;28;19923;-70
2024/01/10 02:06:43;;;;;;;;;;;;;;;-5.70;68.04;101586.41;6350571;28;20270;-70
2024/01/10 02:09:44;;;;;;;;;;;;;;;-5.75;68.06;101593.88;6350453;28;19931;-70
2024/01/10 02:12:45;;;;;;;;;;;;;;;-5.76;68.17;101584.53;6350446;28;19924;-69
2024/01/10 02:15:46;;;;;;;;;;;;;;;-5.80;69.40;101579.34;6350595;28;19923;-69
2024/01/10 02:18:46;;;;;;;;;;;;;;;-5.83;69.96;101582.63;6350192;28;19923;-70
2024/01/10 02:21:47;;;;;;;;;;;;;;;-5.81;69.41;101578.44;6348718;28;20060;-70
2024/01/10 02:24:53;;;;;;;;;;;;;;;-5.83;69.89;101580.06;6350030;28;19924;-70
2024/01/10 02:27:56;;;;;;;;;;;;;;;-5.85;70.79;101579.16;6348950;28;20327;-70
2024/01/10 02:31:00;;;;;;;;;;;;;;;-5.84;70.05;101585.13;6348672;28;19931;-70
2024/01/10 02:34:00;;;;;;;;;;;;;;;-5.82;69.55;101580.97;6350112;28;19924;-70
2024/01/10 02:37:01;;;;;;;;;;;;;;;-5.89;70.36;101574.81;6349955;28;19928;-70
2024/01/10 02:40:02;;;;;;;;;;;;;;;-5.94;69.37;101574.69;6348645;28;19930;-71
2024/01/10 02:43:03;;;;;;;;;;;;;;;-5.93;70.69;101586.59;6349855;28;19924;-70
2024/01/10 02:46:04;;;;;;;;;;;;;;;-5.95;71.14;101578.09;6348291;28;19931;-70
2024/01/10 02:49:04;;;;;;;;;;;;;;;-5.99;70.33;101580.47;6349765;28;19931;-69
2024/01/10 02:52:08;;;;;;;;;;;;;;;-6.03;69.30;101582.06;6349558;28;19924;-70
2024/01/10 02:55:09;;;;;;;;;;;;;;;-5.97;69.71;101577.16;6349594;28;20030;-70
2024/01/10 02:58:10;;;;;;;;;;;;;;;-6.12;69.51;101577.53;6347878;28;19927;-70
2024/01/10 03:01:13;;;;;;;;;;;;;;;-6.12;69.77;101572.44;6347364;28;19928;-70
2024/01/10 03:04:14;;;;;;;;;;;;;;;-6.08;70.30;101573.41;6348699;28;20031;-71
2024/01/10 03:07:15;;;;;;;;;;;;;;;-6.10;70.79;101568.28;6348606;28;20374;-71
2024/01/10 03:10:15;;;;;;;;;;;;;;;-6.03;70.42;101566.81;6347893;28;19924;-70
2024/01/10 03:13:16;;;;;;;;;;;;;;;-6.10;72.23;101560.66;6342877;28;19939;-70
2024/01/10 03:16:17;;;;;;;;;;;;;;;-6.13;72.33;101558.03;6344806;28;19931;-70
2024/01/10 03:19:17;;;;;;;;;;;;;;;-6.19;70.82;101564.59;6348843;28;19924;-70
2024/01/10 03:22:18;;;;;;;;;;;;;;;-6.19;71.05;101555.28;6348762;28;20102;-70
2024/01/10 03:25:19;;;;;;;;;;;;;;;-6.36;69.89;101558.97;6345425;28;20294;-70
2024/01/10 03:28:20;;;;;;;;;;;;;;;-6.31;71.41;101555.75;6334558;28;19928;-70
2024/01/10 03:31:20;;;;;;;;;;;;;;;-6.31;72.30;101560.84;6323439;28;19924;-70
2024/01/10 03:34:21;;;;;;;;;;;;;;;-6.28;73.83;101558.41;6335279;28;19934;-70
2024/01/10 03:37:22;;;;;;;;;;;;;;;-6.25;73.71;101561.88;6347543;28;19987;-70
2024/01/10 03:40:23;;;;;;;;;;;;;;;-6.25;72.48;101555.09;6347236;28;19928;-69
2024/01/10 03:43:24;;;;;;;;;;;;;;;-6.22;72.95;101556.88;6348374;28;20385;-70
2024/01/10 03:46:25;;;;;;;;;;;;;;;-6.21;72.01;101553.53;6342105;28;19924;-70
2024/01/10 03:49:26;;;;;;;;;;;;;;;-6.19;71.98;101547.69;6325145;28;19924;-70
2024/01/10 03:52:29;;;;;;;;;;;;;;;-6.23;72.47;101550.09;6341499;28;19931;-70
2024/01/10 03:55:32;;;;;;;;;;;;;;;-6.23;72.31;101555.16;6326768;28;19924;-69
2024/01/10 03:58:33;;;;;;;;;;;;;;;-6.32;73.26;101551.50;6326063;28;19924;-70
2024/01/10 04:01:34;;;;;;;;;;;;;;;-6.36;73.69;101557.31;6331892;28;20408;-69
2024/01/10 04:04:36;;;;;;;;;;;;;;;-6.44;73.58;101548.59;6346789;28;19932;-71
2024/01/10 04:07:39;;;;;;;;;;;;;;;-6.43;73.90;101550.28;6346922;28;19924;-69
2024/01/10 04:10:40;;;;;;;;;;;;;;;-6.40;74.21;101550.41;6347935;28;19966;-70
2024/01/10 04:13:41;;;;;;;;;;;;;;;-6.47;75.01;101552.69;6347514;28;19923;-70
2024/01/10 04:16:41;;;;;;;;;;;;;;;-6.44;75.22;101552.78;6332805;28;19924;-70
2024/01/10 04:19:42;;;;;;;;;;;;;;;-6.42;74.36;101556.22;6334919;28;19966;-70
2024/01/10 04:22:43;;;;;;;;;;;;;;;-6.53;76.59;101566.91;6324041;28;19932;-70
2024/01/10 04:25:46;;;;;;;;;;;;;;;-6.50;74.86;101566.16;6344908;28;19931;-70
2024/01/10 04:28:49;;;;;;;;;;;;;;;-6.41;75.12;101571.53;6322220;28;20353;-70
2024/01/10 04:31:50;;;;;;;;;;;;;;;-6.42;74.20;101566.38;6322121;28;20389;-70
2024/01/10 04:34:51;;;;;;;;;;;;;;;-6.53;74.37;101568.59;6332167;28;19924;-69
2024/01/10 04:37:52;;;;;;;;;;;;;;;-6.45;75.14;101568.84;6346381;28;20388;-70
2024/01/10 04:40:52;;;;;;;;;;;;;;;-6.49;75.45;101573.81;6334086;28;19936;-69
2024/01/10 04:43:53;;;;;;;;;;;;;;;-6.50;75.30;101574.63;6329082;28;19924;-69
2024/01/10 04:46:57;;;;;;;;;;;;;;;-6.52;76.52;101580.47;6328247;28;19931;-69
2024/01/10 04:49:57;;;;;;;;;;;;;;;-6.64;76.07;101580.94;6322270;28;19925;-70
2024/01/10 04:53:00;;;;;;;;;;;;;;;-6.71;77.62;101584.94;6354129;28;19931;-70
2024/01/10 04:56:01;;;;;;;;;;;;;;;-6.67;78.09;101583.38;6321821;28;19934;-70
2024/01/10 04:59:02;;;;;;;;;;;;;;;-6.74;77.52;101594.97;6339892;28;19967;-71
2024/01/10 05:02:03;;;;;;;;;;;;;;;-6.81;77.78;101612.50;6344800;28;20372;-71
2024/01/10 05:05:04;;;;;;;;;;;;;;;-6.84;78.39;101602.22;6335525;28;19931;-70
2024/01/10 05:08:05;;;;;;;;;;;;;;;-6.83;79.17;101612.44;6337714;28;19923;-70
2024/01/10 05:11:06;;;;;;;;;;;;;;;-6.78;78.10;101610.06;6346911;28;19931;-69
2024/01/10 05:14:07;;;;;;;;;;;;;;;-6.83;76.75;101609.06;6345959;28;19984;-70
2024/01/10 05:17:08;;;;;;;;;;;;;;;-6.81;78.59;101607.44;6334051;28;20297;-69
2024/01/10 05:20:09;;;;;;;;;;;;;;;-6.76;76.53;101605.91;6345796;28;20309;-70
2024/01/10 05:23:10;;;;;;;;;;;;;;;-6.83;77.54;101612.44;6343271;28;19974;-69
2024/01/10 05:26:11;;;;;;;;;;;;;;;-6.82;78.34;101605.69;6345998;28;20341;-70
2024/01/10 05:29:12;;;;;;;;;;;;;;;-6.78;78.01;101599.91;6347976;28;19928;-69
2024/01/10 05:32:12;;;;;;;;;;;;;;;-6.75;77.43;101603.41;6328897;28;19924;-70
2024/01/10 05:35:13;;;;;;;;;;;;;;;-6.80;77.81;101602.38;6324099;28;20263;-75
2024/01/10 05:38:14;;;;;;;;;;;;;;;-6.87;78.34;101597.91;6323922;28;19932;-76
2024/01/10 05:41:17;;;;;;;;;;;;;;;-6.84;76.88;101604.78;6324864;28;19924;-76
2024/01/10 05:44:18;;;;;;;;;;;;;;;-6.82;76.97;101601.47;6347652;28;19924;-75
2024/01/10 05:47:19;;;;;;;;;;;;;;;-6.91;78.70;101596.94;6350210;28;19946;-76
2024/01/10 05:50:20;;;;;;;;;;;;;;;-6.86;79.03;101604.72;6349931;28;19931;-75
2024/01/10 05:53:23;;;;;;;;;;;;;;;-6.85;79.23;101610.69;6338097;28;19959;-76
2024/01/10 05:56:24;;;;;;;;;;;;;;;-6.98;79.44;101609.34;6338542;28;19928;-76
2024/01/10 05:59:25;;;;;;;;;;;;;;;-7.06;80.41;101609.09;6331085;28;19932;-76
2024/01/10 06:02:26;;;;;;;;;;;;;;;-7.03;80.44;101610.88;6336409;28;19924;-76
2024/01/10 06:05:27;;;;;;;;;;;;;;;-7.08;81.42;101618.34;6348624;28;19932;-76
2024/01/10 06:08:28;;;;;;;;;;;;;;;-7.06;81.35;101613.28;6341908;27;19928;-76
2024/01/10 06:11:29;;;;;;;;;;;;;;;-7.05;80.77;101618.44;6347461;28;19924;-76
2024/01/10 06:14:30;;;;;;;;;;;;;;;-7.07;81.46;101612.44;6347104;28;19977;-76
2024/01/10 06:17:33;;;;;;;;;;;;;;;-7.01;81.18;101621.94;6347804;28;19924;-76
2024/01/10 06:20:37;;;;;;;;;;;;;;;-7.14;81.32;101625.72;6348485;28;20312;-76
2024/01/10 06:23:38;;;;;;;;;;;;;;;-7.07;81.32;101627.66;6348691;28;20297;-76
2024/01/10 06:26:39;;;;;;;;;;;;;;;-7.14;81.38;101633.34;6349074;28;19924;-75
2024/01/10 06:29:39;;;;;;;;;;;;;;;-7.19;81.73;101627.22;6349218;28;19994;-75
2024/01/10 06:32:40;;;;;;;;;;;;;;;-7.08;81.44;101625.94;6347792;28;20370;-75
2024/01/10 06:35:44;;;;;;;;;;;;;;;-7.05;81.65;101632.78;6349116;28;20376;-75
2024/01/10 06:38:48;;;;;;;;;;;;;;;-7.02;81.45;101631.25;6347793;28;19931;-75
2024/01/10 06:41:49;;;;;;;;;;;;;;;-7.02;81.75;101638.84;6348913;28;20014;-75
2024/01/10 06:44:49;;;;;;;;;;;;;;;-7.06;82.26;101642.09;6347674;28;19945;-75
2024/01/10 06:47:50;;;;;;;;;;;;;;;-7.08;82.77;101653.84;6347450;28;19931;-76
2024/01/10 06:50:50;;;;;;;;;;;;;;;-7.10;83.76;101655.47;6348611;28;19924;-76
2024/01/10 06:53:51;;;;;;;;;;;;;;;-7.05;83.49;101653.94;6347145;28;19923;-76
2024/01/10 06:56:52;;;;;;;;;;;;;;;-6.97;81.64;101661.84;6348721;28;19981;-75
2024/01/10 06:59:55;;;;;;;;;;;;;;;-6.87;82.32;101657.97;6347209;28;19927;-76
2024/01/10 07:02:56;;;;;;;;;;;;;;;-6.81;83.08;101660.75;6348385;28;19923;-75
2024/01/10 07:05:57;;;;;;;;;;;;;;;-6.79;83.23;101652.34;6348331;28;19930;-75
2024/01/10 07:08:58;;;;;;;;;;;;;;;-6.64;81.94;101657.09;6347259;28;19923;-75
2024/01/10 07:11:59;;;;;;;;;;;;;;;-6.62;81.79;101659.69;6346949;28;19924;-76
2024/01/10 07:15:02;;;;;;;;;;;;;;;-6.58;80.63;101659.00;6348023;28;19924;-75
2024/01/10 07:18:04;;;;;;;;;;;;;;;-6.53;80.24;101653.25;6348386;28;20366;-76
2024/01/10 07:21:05;;;;;;;;;;;;;;;-6.46;81.07;101658.53;6346334;28;20297;-75
2024/01/10 07:24:08;;;;;;;;;;;;;;;-6.37;80.01;101657.19;6348344;28;19931;-76
2024/01/10 07:27:09;;;;;;;;;;;;;;;-6.32;81.17;101665.84;6347521;28;20353;-75
2024/01/10 07:30:16;;;;;;;;;;;;;;;-6.28;79.37;101667.66;6346479;28;19924;-76
2024/01/10 07:33:18;;;;;;;;;;;;;;;-6.12;78.76;101660.53;6347557;28;19928;-76
2024/01/10 07:36:18;;;;;;;;;;;;;;;-6.03;79.38;101659.97;6346597;28;19931;-75
2024/01/10 07:39:19;;;;;;;;;;;;;;;-5.96;78.97;101660.22;6347307;28;19927;-75
2024/01/10 07:42:20;;;;;;;;;;;;;;;-5.79;78.04;101653.09;6345295;28;20373;-75
2024/01/10 07:45:21;;;;;;;;;;;;;;;-5.58;78.07;101664.75;6346670;28;19930;-75
2024/01/10 07:48:22;;;;;;;;;;;;;;;-5.45;77.46;101661.78;6346732;28;19931;-75
2024/01/10 07:51:23;;;;;;;;;;;;;;;-5.26;77.54;101660.63;6345556;28;19930;-75
2024/01/10 07:54:23;;;;;;;;;;;;;;;-5.30;77.83;101656.28;6346875;28;19931;-75
2024/01/10 07:57:24;;;;;;;;;;;;;;;-5.06;78.58;101656.97;6345803;28;19924;-75
2024/01/10 08:00:25;;;;;;;;;;;;;;;-5.02;80.20;101657.94;6345771;28;19931;-75
2024/01/10 08:03:26;;;;;;;;;;;;;;;-4.74;79.65;101664.63;6345634;28;19923;-75
2024/01/10 08:06:26;;;;;;;;;;;;;;;-4.62;80.30;101661.56;6346836;28;20301;-75
2024/01/10 08:09:29;;;;;;;;;;;;;;;-4.37;80.06;101662.22;6346879;28;19968;-75
2024/01/10 08:12:30;;;;;;;;;;;;;;;-4.30;80.65;101669.22;6346466;28;20393;-75
2024/01/10 08:15:34;;;;;;;;;;;;;;;-4.18;80.83;101668.66;6346639;28;19930;-75
2024/01/10 08:18:35;;;;;;;;;;;;;;;-4.09;81.29;101671.44;6345343;28;20400;-75
2024/01/10 08:21:36;;;;;;;;;;;;;;;-3.97;81.52;101673.44;6345106;28;20018;-75
2024/01/10 08:24:37;;;;;;;;;;;;;;;-3.97;81.84;101670.88;6346444;28;19924;-75
2024/01/10 08:27:38;;;;;;;;;;;;;;;-4.00;82.11;101673.34;6346296;28;20392;-74
2024/01/10 08:30:39;;;;;;;;;;;;;;;-3.80;82.60;101661.94;6346668;28;20006;-75
2024/01/10 08:33:39;;;;;;;;;;;;;;;-3.51;81.90;101674.50;6346225;28;19977;-75
2024/01/10 08:36:40;;;;;;;;;;;;;;;-3.36;82.13;101685.03;6345335;28;20292;-75
2024/01/10 08:39:42;;;;;;;;;;;;;;;-3.21;81.59;101673.44;6346293;28;19931;-75
2024/01/10 08:42:43;;;;;;;;;;;;;;;-3.11;81.90;101689.00;6346049;28;19967;-76
2024/01/10 08:45:46;;;;;;;;;;;;;;;-2.89;81.29;101686.88;6346318;28;20483;-76
2024/01/10 08:48:47;;;;;;;;;;;;;;;-2.89;82.00;101684.34;6346180;28;19923;-75
2024/01/10 08:51:49;;;;;;;;;;;;;;;-2.64;81.81;101693.34;6346325;28;19931;-76
2024/01/10 08:54:50;;;;;;;;;;;;;;;-2.61;81.27;101693.41;6346035;28;20018;-76
2024/01/10 08:57:51;;;;;;;;;;;;;;;-2.63;80.87;101693.38;6345076;28;19969;-75
2024/01/10 09:00:51;;;;;;;;;;;;;;;-2.54;80.70;101695.25;6344794;28;20262;-76
2024/01/10 09:03:52;;;;;;;;;;;;;;;-2.99;81.77;101696.06;6347297;28;20343;-76
2024/01/10 09:06:53;;;;;;;;;;;;;;;-2.41;81.31;101701.44;6350797;28;19928;-76
2024/01/10 09:09:54;;;;;;;;;;;;;;;-2.19;80.34;101689.06;6349679;28;19978;-75
2024/01/10 09:12:58;;;;;;;;;;;;;;;-2.06;78.69;101689.31;6349565;28;19975;-76
2024/01/10 09:15:58;;;;;;;;;;;;;;;-2.00;78.62;101688.53;6350951;28;19924;-76
2024/01/10 09:18:59;;;;;;;;;;;;;;;-1.86;78.71;101675.97;6350591;28;19946;-75
2024/01/10 09:22:00;;;;;;;;;;;;;;;-1.86;78.28;101671.69;6350263;28;20418;-76
2024/01/10 09:25:04;;;;;;;;;;;;;;;-1.68;78.73;101668.56;6349194;28;19924;-76
2024/01/10 09:28:04;;;;;;;;;;;;;;;-1.62;78.16;101672.94;6349022;28;19924;-76
2024/01/10 09:31:07;;;;;;;;;;;;;;;-1.51;77.54;101671.38;6350522;28;20400;-76
2024/01/10 09:34:07;;;;;;;;;;;;;;;-1.40;77.54;101665.56;6348967;28;19923;-76
2024/01/10 09:37:08;;;;;;;;;;;;;;;-1.35;77.41;101658.81;6350328;28;19924;-76
2024/01/10 09:40:09;;;;;;;;;;;;;;;-1.39;76.69;101667.28;6350563;28;19930;-76
2024/01/10 09:43:13;;;;;;;;;;;;;;;-1.29;76.40;101671.69;6349814;28;19928;-76
2024/01/10 09:46:17;;;;;;;;;;;;;;;-1.01;76.58;101670.34;6350102;28;19931;-76
2024/01/10 09:49:21;;;;;;;;;;;;;;;-0.87;75.60;101665.38;6348678;28;19953;-76
2024/01/10 09:52:28;;;;;;;;;;;;;;;-0.77;75.09;101662.09;6350239;28;20282;-76
2024/01/10 09:55:33;;;;;;;;;;;;;;;-1.05;74.64;101659.22;6348699;28;19939;-76
2024/01/10 09:58:39;;;;;;;;;;;;;;;-0.59;73.87;101664.00;6348425;28;20364;-76
2024/01/10 10:01:40;;;;;;;;;;;;;;;-0.52;73.88;101658.09;6348491;28;19924;-76
2024/01/10 10:04:43;;;;;;;;;;;;;;;-0.44;73.54;101650.47;6348226;28;19931;-76
2024/01/10 10:07:47;;;;;;;;;;;;;;;-0.43;74.12;101644.50;6349466;28;19924;-76
2024/01/10 10:10:49;;;;;;;;;;;;;;;-0.39;74.29;101650.50;6348264;28;20403;-76
2024/01/10 10:13:49;;;;;;;;;;;;;;;-0.28;74.16;101642.09;6348025;28;19930;-76
2024/01/10 10:16:50;;;;;;;;;;;;;;;-0.43;73.51;101650.50;6349122;28;19924;-76
2024/01/10 10:20:04;;;;;;;;;;;;;;;-0.19;73.30;101643.00;6349192;28;20478;-76
2024/01/10 10:23:06;;;;;;;;;;;;;;;-0.12;73.11;101634.53;6348814;28;19923;-76
2024/01/10 10:26:13;;;;;;;;;;;;;;;0.06;72.07;101638.94;6348843;28;19931;-76
2024/01/10 10:29:17;;;;;;;;;;;;;;;0.32;71.19;101644.25;6347678;28;19946;-76
2024/01/10 10:32:18;;;;;;;;;;;;;;;0.21;72.01;101628.78;6348644;28;19923;-76
2024/01/10 10:35:20;;;;;;;;;;;;;;;0.32;71.33;101631.41;6349251;28;20286;-76
2024/01/10 10:38:24;;;;;;;;;;;;;;;0.47;70.19;101635.78;6348771;28;19924;-76
2024/01/10 10:41:25;;;;;;;;;;;;;;;0.36;70.33;101631.44;6348405;28;19950;-76
2024/01/10 10:44:28;;;;;;;;;;;;;;;0.55;70.13;101637.53;6347563;28;19970;-76
2024/01/10 10:47:38;;;;;;;;;;;;;;;0.53;69.92;101626.41;6348638;28;20305;-76
2024/01/10 10:50:39;;;;;;;;;;;;;;;0.48;69.16;101632.38;6347416;28;19969;-76
2024/01/10 10:53:43;;;;;;;;;;;;;;;0.70;68.38;101623.94;6348247;28;19978;-76
2024/01/10 10:56:47;;;;;;;;;;;;;;;0.75;69.03;101622.25;6347203;28;19931;-76
2024/01/10 10:59:49;;;;;;;;;;;;;;;0.86;67.99;101621.41;6347021;28;20297;-76
2024/01/10 11:02:50;;;;;;;;;;;;;;;0.92;68.17;101613.75;6346947;28;20362;-76
2024/01/10 11:05:51;;;;;;;;;;;;;;;1.12;67.43;101621.53;6348138;28;19924;-76
2024/01/10 11:08:54;;;;;;;;;;;;;;;1.46;66.94;101614.72;6347064;28;19931;-76
2024/01/10 11:11:55;;;;;;;;;;;;;;;1.45;66.02;101609.59;6346667;28;20305;-76
2024/01/10 11:14:58;;;;;;;;;;;;;;;0.96;64.75;101610.31;6346827;28;20011;-76
2024/01/10 11:18:26;;;;;;;;;;;;;;;1.18;65.89;101600.97;6347924;28;19924;-76
2024/01/10 11:21:29;;;;;;;;;;;;;;;1.37;65.65;101601.88;6323564;28;19928;-76
2024/01/10 11:24:30;;;;;;;;;;;;;;;1.43;65.34;101595.88;6347513;28;20487;-76
2024/01/10 11:27:31;;;;;;;;;;;;;;;1.41;64.09;101595.88;6347227;28;19924;-76
2024/01/10 11:30:35;;;;;;;;;;;;;;;1.42;65.36;101595.00;6347586;27;19930;-76
2024/01/10 11:33:41;;;;;;;;;;;;;;;1.49;65.60;101591.59;6347761;28;19934;-76
2024/01/10 11:37:01;;;;;;;;;;;;;;;1.58;64.89;101586.44;6347323;28;20302;-76
2024/01/10 11:40:03;;;;;;;;;;;;;;;1.74;63.20;101583.88;6347267;28;19928;-76
2024/01/10 11:43:03;;;;;;;;;;;;;;;1.60;63.37;101578.72;6347222;28;19930;-76
2024/01/10 11:46:05;;;;;;;;;;;;;;;1.58;63.28;101580.44;6346159;28;19924;-76
2024/01/10 11:49:13;;;;;;;;;;;;;;;1.72;62.44;101575.31;6345873;28;19945;-76
2024/01/10 11:52:14;;;;;;;;;;;;;;;1.88;62.45;101571.88;6346982;28;20332;-76
2024/01/10 11:55:35;;;;;;;;;;;;;;;2.06;61.05;101565.84;6345934;28;19973;-76
2024/01/10 11:58:52;;;;;;;;;;;;;;;2.08;61.40;101564.13;6345691;28;20007;-76
2024/01/10 12:01:54;;;;;;;;;;;;;;;2.26;61.58;101568.34;6345678;28;19931;-76
2024/01/10 12:04:55;;;;;;;;;;;;;;;2.25;60.74;101563.25;6347157;28;20014;-76
2024/01/10 12:07:56;;;;;;;;;;;;;;;2.08;61.31;101561.56;6347467;28;19923;-76
2024/01/10 12:10:57;;;;;;;;;;;;;;;2.11;61.60;101561.53;6347097;28;19955;-76
2024/01/10 12:13:57;;;;;;;;;;;;;;;2.13;61.41;101557.25;6345410;28;20177;-76
2024/01/10 12:16:59;;;;;;;;;;;;;;;2.18;61.10;101547.81;6346608;27;19931;-76
2024/01/10 12:20:00;;;;;;;;;;;;;;;2.18;61.25;101555.53;6345731;28;19984;-76
2024/01/10 12:23:02;;;;;;;;;;;;;;;2.17;61.28;101540.91;6346236;28;19923;-76
2024/01/10 12:26:07;;;;;;;;;;;;;;;2.12;61.07;101536.63;6346379;28;20308;-76
2024/01/10 12:29:09;;;;;;;;;;;;;;;2.45;60.43;101532.25;6346352;28;19930;-76
2024/01/10 12:32:10;;;;;;;;;;;;;;;2.41;60.00;101542.56;6345492;28;19928;-73
2024/01/10 12:35:11;;;;;;;;;;;;;;;2.31;60.35;101538.31;6346375;28;19930;-74
2024/01/10 12:38:12;;;;;;;;;;;;;;;2.15;60.20;101536.63;6348426;28;19924;-73
2024/01/10 12:41:14;;;;;;;;;;;;;;;2.19;60.55;101531.47;6351082;28;19934;-74
2024/01/10 12:44:15;;;;;;;;;;;;;;;2.19;60.99;101546.91;6350825;28;20006;-73
2024/01/10 12:47:19;;;;;;;;;;;;;;;2.29;59.97;101544.34;6351229;28;19930;-74
2024/01/10 12:50:20;;;;;;;;;;;;;;;2.03;60.41;101532.38;6349962;28;19955;-74
2024/01/10 12:53:21;;;;;;;;;;;;;;;2.29;60.52;101536.63;6350176;28;19924;-74
2024/01/10 12:56:22;;;;;;;;;;;;;;;2.27;60.37;101536.59;6349861;28;19978;-74
2024/01/10 12:59:26;;;;;;;;;;;;;;;2.11;60.52;101537.50;6350060;28;19928;-75
2024/01/10 13:02:27;;;;;;;;;;;;;;;2.15;60.52;101534.06;6350890;28;20305;-75
2024/01/10 13:05:27;;;;;;;;;;;;;;;2.27;60.05;101534.03;6351222;28;20018;-75
2024/01/10 13:08:28;;;;;;;;;;;;;;;2.40;60.29;101527.97;6349800;28;19992;-74
2024/01/10 13:11:29;;;;;;;;;;;;;;;2.34;59.69;101522.84;6349928;28;19934;-75
2024/01/10 13:14:31;;;;;;;;;;;;;;;2.16;60.73;101520.31;6349657;28;19972;-74
2024/01/10 13:17:32;;;;;;;;;;;;;;;2.21;61.10;101523.75;6350846;27;19924;-74
2024/01/10 13:20:32;;;;;;;;;;;;;;;2.12;61.01;101522.06;6350770;28;19924;-75
2024/01/10 13:23:34;;;;;;;;;;;;;;;2.14;61.19;101528.06;6349203;28;19967;-74
2024/01/10 13:26:37;;;;;;;;;;;;;;;2.05;61.50;101522.91;6350414;28;19946;-74
2024/01/10 13:29:38;;;;;;;;;;;;;;;1.98;61.44;101524.66;6349247;28;19928;-74
2024/01/10 13:32:39;;;;;;;;;;;;;;;1.87;62.85;101521.22;6350550;28;20400;-74
2024/01/10 13:35:39;;;;;;;;;;;;;;;1.83;63.47;101522.09;6383323;27;19981;-75
2024/01/10 13:38:40;;;;;;;;;;;;;;;1.89;63.93;101522.09;6335417;27;19924;-74
2024/01/10 13:41:41;;;;;;;;;;;;;;;1.67;64.34;101521.28;6339023;28;19968;-74
2024/01/10 13:44:41;;;;;;;;;;;;;;;1.55;64.60;101524.72;6347706;28;19923;-74
2024/01/10 13:47:42;;;;;;;;;;;;;;;1.63;65.58;101508.41;6331310;27;20365;-74
2024/01/10 13:50:43;;;;;;;;;;;;;;;1.46;65.89;101509.25;6333669;27;19928;-74
2024/01/10 13:53:43;;;;;;;;;;;;;;;1.25;66.29;101506.69;6333602;28;19924;-74
2024/01/10 13:56:45;;;;;;;;;;;;;;;1.29;66.66;101498.97;6324732;28;19966;-74
2024/01/10 13:59:47;;;;;;;;;;;;;;;1.28;67.10;101506.72;6348608;27;19927;-74
2024/01/10 14:02:48;;;;;;;;;;;;;;;1.14;67.57;101502.41;6329394;27;19928;-74
2024/01/10 14:05:49;;;;;;;;;;;;;;;1.02;67.55;101496.41;6342717;28;19931;-74
2024/01/10 14:08:50;;;;;;;;;;;;;;;0.96;68.34;101499.81;6342799;28;19977;-74
2024/01/10 14:11:51;;;;;;;;;;;;;;;0.94;68.41;101514.38;6349899;28;19931;-74
2024/01/10 14:14:52;;;;;;;;;;;;;;;0.92;68.53;101514.34;6341126;28;19923;-74
2024/01/10 14:17:53;;;;;;;;;;;;;;;0.92;69.10;101516.91;6331071;28;19930;-74
2024/01/10 14:20:54;;;;;;;;;;;;;;;0.79;68.53;101510.91;6328721;27;19974;-75
2024/01/10 14:23:57;;;;;;;;;;;;;;;0.83;69.35;101513.50;6342860;28;19928;-74
2024/01/10 14:26:58;;;;;;;;;;;;;;;0.76;69.52;101510.91;6331735;28;19928;-74
2024/01/10 14:29:59;;;;;;;;;;;;;;;0.74;69.03;101510.06;6324367;28;19950;-74
2024/01/10 14:33:00;;;;;;;;;;;;;;;0.66;69.82;101522.00;6345821;28;20347;-74
2024/01/10 14:36:03;;;;;;;;;;;;;;;0.59;70.09;101520.25;6348986;28;19924;-74
2024/01/10 14:39:07;;;;;;;;;;;;;;;0.46;70.62;101524.50;6348827;28;19973;-74
2024/01/10 14:42:08;;;;;;;;;;;;;;;0.48;70.80;101524.50;6348744;28;20042;-74
2024/01/10 14:45:10;;;;;;;;;;;;;;;0.40;71.41;101522.75;6349076;28;20237;-74
2024/01/10 14:48:11;;;;;;;;;;;;;;;0.39;71.21;101527.88;6342976;28;20381;-75
2024/01/10 14:51:12;;;;;;;;;;;;;;;0.29;71.29;101524.44;6347893;28;19924;-74
2024/01/10 14:54:13;;;;;;;;;;;;;;;0.22;72.15;101525.22;6348021;28;19928;-74
2024/01/10 14:57:13;;;;;;;;;;;;;;;0.19;72.69;101522.66;6347935;28;19935;-74
2024/01/10 15:00:15;;;;;;;;;;;;;;;0.12;72.78;101528.59;6347341;28;19924;-74
2024/01/10 15:03:18;;;;;;;;;;;;;;;0.04;73.43;101520.84;6340147;28;19924;-74
2024/01/10 15:06:19;;;;;;;;;;;;;;;-0.02;73.61;101521.69;6339549;28;19931;-74
2024/01/10 15:09:20;;;;;;;;;;;;;;;-0.08;74.42;101520.81;6369841;27;20005;-74
2024/01/10 15:12:21;;;;;;;;;;;;;;;-0.15;74.60;101517.31;6332220;28;19970;-74
2024/01/10 15:15:22;;;;;;;;;;;;;;;-0.26;74.55;101516.41;6335239;28;19928;-74
2024/01/10 15:18:22;;;;;;;;;;;;;;;-0.28;74.77;101513.81;6327301;28;19931;-74
2024/01/10 15:21:23;;;;;;;;;;;;;;;-0.32;75.47;101516.34;6336093;28;19934;-74
2024/01/10 15:24:23;;;;;;;;;;;;;;;-0.33;75.42;101512.06;6326261;27;20437;-74
2024/01/10 15:27:27;;;;;;;;;;;;;;;-0.36;75.39;101507.78;6342437;28;20297;-74
2024/01/10 15:30:29;;;;;;;;;;;;;;;-0.44;75.71;101507.72;6324752;28;20294;-74
2024/01/10 15:33:29;;;;;;;;;;;;;;;-0.55;76.29;101506.78;6346205;28;19932;-74
2024/01/10 15:36:30;;;;;;;;;;;;;;;-0.57;76.69;101502.50;6322022;28;19931;-74
2024/01/10 15:39:31;;;;;;;;;;;;;;;-0.60;76.95;101493.06;6322358;28;19928;-74